sensor_id;sensor_type;location;lat;lon;timestamp;temperature;humidity
24207;DHT22;12351;52.284;9.160;2022-08-19T00:00:51;20.10;99.90
24207;DHT22;12351;52.284;9.160;2022-08-19T00:03:23;20.00;99.90
24207;DHT22;12351;52.284;9.160;2022-08-19T00:05:54;20.10;99.90
24207;DHT22;12351;52.284;9.160;2022-08-19T00:08:31;20.10;99.90
24207;DHT22;12351;52.284;9.160;2022-08-19T00:11:05;20.20;99.90
24207;DHT22;12351;52.284;9.160;2022-08-19T00:13:36;20.20;99.90
24207;DHT22;12351;52.284;9.160;2022-08-19T00:16:13;20.20;99.90
24207;DHT22;12351;52.284;9.160;2022-08-19T00:18:47;20.20;99.90
24207;DHT22;12351;52.284;9.160;2022-08-19T00:21:24;20.20;99.90
24207;DHT22;12351;52.284;9.160;2022-08-19T00:23:56;20.20;99.90
24207;DHT22;12351;52.284;9.160;2022-08-19T00:26:32;20.10;99.90
24207;DHT22;12351;52.284;9.160;2022-08-19T00:29:06;20.10;99.90
24207;DHT22;12351;52.284;9.160;2022-08-19T00:31:43;20.20;99.90
24207;DHT22;12351;52.284;9.160;2022-08-19T00:34:16;20.10;99.90
24207;DHT22;12351;52.284;9.160;2022-08-19T00:36:51;20.10;99.90
24207;DHT22;12351;52.284;9.160;2022-08-19T00:39:27;20.10;99.90
24207;DHT22;12351;52.284;9.160;2022-08-19T00:42:01;20.00;99.90
24207;DHT22;12351;52.284;9.160;2022-08-19T00:44:33;20.00;99.90
24207;DHT22;12351;52.284;9.160;2022-08-19T00:47:07;19.90;99.90
24207;DHT22;12351;52.284;9.160;2022-08-19T00:49:45;19.80;99.90
24207;DHT22;12351;52.284;9.160;2022-08-19T00:52:20;20.00;99.90
24207;DHT22;12351;52.284;9.160;2022-08-19T00:54:54;19.90;99.90
24207;DHT22;12351;52.284;9.160;2022-08-19T00:57:29;19.90;99.90
24207;DHT22;12351;52.284;9.160;2022-08-19T01:00:05;19.90;99.90
24207;DHT22;12351;52.284;9.160;2022-08-19T01:02:40;20.00;99.90
24207;DHT22;12351;52.284;9.160;2022-08-19T01:05:16;20.00;99.90
24207;DHT22;12351;52.284;9.160;2022-08-19T01:07:50;20.00;99.90
24207;DHT22;12351;52.284;9.160;2022-08-19T01:10:25;20.00;99.90
24207;DHT22;12351;52.284;9.160;2022-08-19T01:13:01;20.00;99.90
24207;DHT22;12351;52.284;9.160;2022-08-19T01:15:40;19.90;99.90
24207;DHT22;12351;52.284;9.160;2022-08-19T01:18:12;19.90;99.90
24207;DHT22;12351;52.284;9.160;2022-08-19T01:20:45;19.90;99.90
24207;DHT22;12351;52.284;9.160;2022-08-19T01:23:17;19.80;99.90
24207;DHT22;12351;52.284;9.160;2022-08-19T01:25:51;19.80;99.90
24207;DHT22;12351;52.284;9.160;2022-08-19T01:28:28;19.70;99.90
24207;DHT22;12351;52.284;9.160;2022-08-19T01:31:01;19.70;99.90
24207;DHT22;12351;52.284;9.160;2022-08-19T01:33:34;19.70;99.90
24207;DHT22;12351;52.284;9.160;2022-08-19T01:36:07;19.70;99.90
24207;DHT22;12351;52.284;9.160;2022-08-19T01:38:42;19.70;99.90
24207;DHT22;12351;52.284;9.160;2022-08-19T01:41:12;19.70;99.90
24207;DHT22;12351;52.284;9.160;2022-08-19T01:43:47;19.70;99.90
24207;DHT22;12351;52.284;9.160;2022-08-19T01:46:24;19.60;99.90
24207;DHT22;12351;52.284;9.160;2022-08-19T01:48:56;19.60;99.90
24207;DHT22;12351;52.284;9.160;2022-08-19T01:51:28;19.50;99.90
24207;DHT22;12351;52.284;9.160;2022-08-19T01:54:02;19.50;99.90
24207;DHT22;12351;52.284;9.160;2022-08-19T01:56:36;19.50;99.90
24207;DHT22;12351;52.284;9.160;2022-08-19T01:59:12;19.40;99.90
24207;DHT22;12351;52.284;9.160;2022-08-19T02:01:46;19.40;99.90
24207;DHT22;12351;52.284;9.160;2022-08-19T02:04:20;19.40;99.90
24207;DHT22;12351;52.284;9.160;2022-08-19T02:06:51;19.30;99.90
24207;DHT22;12351;52.284;9.160;2022-08-19T02:09:26;19.30;99.90
24207;DHT22;12351;52.284;9.160;2022-08-19T02:12:00;19.30;99.90
24207;DHT22;12351;52.284;9.160;2022-08-19T02:14:35;19.20;99.90
24207;DHT22;12351;52.284;9.160;2022-08-19T02:17:07;19.20;99.90
24207;DHT22;12351;52.284;9.160;2022-08-19T02:19:38;19.10;99.90
24207;DHT22;12351;52.284;9.160;2022-08-19T02:22:11;19.10;99.90
24207;DHT22;12351;52.284;9.160;2022-08-19T02:24:46;19.00;99.90
24207;DHT22;12351;52.284;9.160;2022-08-19T02:27:22;19.00;99.90
24207;DHT22;12351;52.284;9.160;2022-08-19T02:29:53;19.00;99.90
24207;DHT22;12351;52.284;9.160;2022-08-19T02:32:29;19.00;99.90
24207;DHT22;12351;52.284;9.160;2022-08-19T02:35:02;18.90;99.90
24207;DHT22;12351;52.284;9.160;2022-08-19T02:37:38;18.80;99.90
24207;DHT22;12351;52.284;9.160;2022-08-19T02:40:10;18.80;99.90
24207;DHT22;12351;52.284;9.160;2022-08-19T02:42:45;18.80;99.90
24207;DHT22;12351;52.284;9.160;2022-08-19T02:45:19;18.80;99.90
24207;DHT22;12351;52.284;9.160;2022-08-19T02:47:53;18.80;99.90
24207;DHT22;12351;52.284;9.160;2022-08-19T02:50:26;18.80;99.90
24207;DHT22;12351;52.284;9.160;2022-08-19T02:53:00;18.70;99.90
24207;DHT22;12351;52.284;9.160;2022-08-19T02:55:35;18.60;99.90
24207;DHT22;12351;52.284;9.160;2022-08-19T02:58:08;18.60;99.90
24207;DHT22;12351;52.284;9.160;2022-08-19T03:00:47;18.60;99.90
24207;DHT22;12351;52.284;9.160;2022-08-19T03:03:19;18.50;99.90
24207;DHT22;12351;52.284;9.160;2022-08-19T03:08:29;18.50;99.90
24207;DHT22;12351;52.284;9.160;2022-08-19T03:11:00;18.40;99.90
24207;DHT22;12351;52.284;9.160;2022-08-19T03:13:35;18.20;99.90
24207;DHT22;12351;52.284;9.160;2022-08-19T03:16:10;18.20;99.90
24207;DHT22;12351;52.284;9.160;2022-08-19T03:18:42;18.20;99.90
24207;DHT22;12351;52.284;9.160;2022-08-19T03:21:18;18.30;99.90
24207;DHT22;12351;52.284;9.160;2022-08-19T03:23:57;18.20;99.90
24207;DHT22;12351;52.284;9.160;2022-08-19T03:26:33;18.30;99.90
24207;DHT22;12351;52.284;9.160;2022-08-19T03:29:06;18.30;99.90
24207;DHT22;12351;52.284;9.160;2022-08-19T03:31:41;18.20;99.90
24207;DHT22;12351;52.284;9.160;2022-08-19T03:34:18;18.20;99.90
24207;DHT22;12351;52.284;9.160;2022-08-19T03:36:52;18.20;99.90
24207;DHT22;12351;52.284;9.160;2022-08-19T03:39:26;18.10;99.90
24207;DHT22;12351;52.284;9.160;2022-08-19T03:42:01;18.10;99.90
24207;DHT22;12351;52.284;9.160;2022-08-19T03:44:35;18.10;99.90
24207;DHT22;12351;52.284;9.160;2022-08-19T03:47:10;18.00;99.90
24207;DHT22;12351;52.284;9.160;2022-08-19T03:49:44;18.00;99.90
24207;DHT22;12351;52.284;9.160;2022-08-19T03:52:18;18.00;99.90
24207;DHT22;12351;52.284;9.160;2022-08-19T03:54:53;17.90;99.90
24207;DHT22;12351;52.284;9.160;2022-08-19T03:57:29;17.90;99.90
24207;DHT22;12351;52.284;9.160;2022-08-19T04:00:04;17.80;99.90
24207;DHT22;12351;52.284;9.160;2022-08-19T04:02:44;17.90;99.90
24207;DHT22;12351;52.284;9.160;2022-08-19T04:05:16;17.80;99.90
24207;DHT22;12351;52.284;9.160;2022-08-19T04:07:51;17.80;99.90
24207;DHT22;12351;52.284;9.160;2022-08-19T04:10:24;17.90;99.90
24207;DHT22;12351;52.284;9.160;2022-08-19T04:13:01;17.90;99.90
24207;DHT22;12351;52.284;9.160;2022-08-19T04:15:38;17.80;99.90
24207;DHT22;12351;52.284;9.160;2022-08-19T04:18:08;17.70;99.90
24207;DHT22;12351;52.284;9.160;2022-08-19T04:20:42;17.70;99.90
24207;DHT22;12351;52.284;9.160;2022-08-19T04:23:15;17.60;99.90
24207;DHT22;12351;52.284;9.160;2022-08-19T04:25:49;17.60;99.90
24207;DHT22;12351;52.284;9.160;2022-08-19T04:28:24;17.60;99.90
24207;DHT22;12351;52.284;9.160;2022-08-19T04:30:55;17.70;99.90
24207;DHT22;12351;52.284;9.160;2022-08-19T04:33:28;17.60;99.90
24207;DHT22;12351;52.284;9.160;2022-08-19T04:36:02;17.50;99.90
24207;DHT22;12351;52.284;9.160;2022-08-19T04:38:33;17.50;99.90
24207;DHT22;12351;52.284;9.160;2022-08-19T04:41:04;17.50;99.90
24207;DHT22;12351;52.284;9.160;2022-08-19T04:43:38;17.60;99.90
24207;DHT22;12351;52.284;9.160;2022-08-19T04:46:12;17.60;99.90
24207;DHT22;12351;52.284;9.160;2022-08-19T04:48:46;17.60;99.90
24207;DHT22;12351;52.284;9.160;2022-08-19T04:51:17;17.60;99.90
24207;DHT22;12351;52.284;9.160;2022-08-19T04:53:52;17.60;99.90
24207;DHT22;12351;52.284;9.160;2022-08-19T04:56:30;17.50;99.90
24207;DHT22;12351;52.284;9.160;2022-08-19T04:59:03;17.60;99.90
24207;DHT22;12351;52.284;9.160;2022-08-19T05:01:39;17.60;99.90
24207;DHT22;12351;52.284;9.160;2022-08-19T05:04:12;17.50;99.90
24207;DHT22;12351;52.284;9.160;2022-08-19T05:06:49;17.50;99.90
24207;DHT22;12351;52.284;9.160;2022-08-19T05:09:23;17.50;99.90
24207;DHT22;12351;52.284;9.160;2022-08-19T05:11:58;17.50;99.90
24207;DHT22;12351;52.284;9.160;2022-08-19T05:14:31;17.50;99.90
24207;DHT22;12351;52.284;9.160;2022-08-19T05:17:08;17.60;99.90
24207;DHT22;12351;52.284;9.160;2022-08-19T05:19:43;17.60;99.90
24207;DHT22;12351;52.284;9.160;2022-08-19T05:22:18;17.70;99.90
24207;DHT22;12351;52.284;9.160;2022-08-19T05:24:53;17.70;99.90
24207;DHT22;12351;52.284;9.160;2022-08-19T05:27:27;17.70;99.90
24207;DHT22;12351;52.284;9.160;2022-08-19T05:30:00;17.70;99.90
24207;DHT22;12351;52.284;9.160;2022-08-19T05:32:35;17.80;99.90
24207;DHT22;12351;52.284;9.160;2022-08-19T05:35:07;17.80;99.90
24207;DHT22;12351;52.284;9.160;2022-08-19T05:37:39;17.80;99.90
24207;DHT22;12351;52.284;9.160;2022-08-19T05:40:12;17.70;99.90
24207;DHT22;12351;52.284;9.160;2022-08-19T05:42:43;17.70;99.90
24207;DHT22;12351;52.284;9.160;2022-08-19T05:45:15;17.80;99.90
24207;DHT22;12351;52.284;9.160;2022-08-19T05:47:49;17.80;99.90
24207;DHT22;12351;52.284;9.160;2022-08-19T05:50:20;17.90;99.90
24207;DHT22;12351;52.284;9.160;2022-08-19T05:52:54;17.90;99.90
24207;DHT22;12351;52.284;9.160;2022-08-19T05:55:31;17.90;99.90
24207;DHT22;12351;52.284;9.160;2022-08-19T05:58:01;17.90;99.90
24207;DHT22;12351;52.284;9.160;2022-08-19T06:00:36;17.90;99.90
24207;DHT22;12351;52.284;9.160;2022-08-19T06:03:13;17.90;99.90
24207;DHT22;12351;52.284;9.160;2022-08-19T06:05:45;18.00;99.90
24207;DHT22;12351;52.284;9.160;2022-08-19T06:08:19;18.10;99.90
24207;DHT22;12351;52.284;9.160;2022-08-19T06:10:55;18.10;99.90
24207;DHT22;12351;52.284;9.160;2022-08-19T06:13:28;18.20;99.90
24207;DHT22;12351;52.284;9.160;2022-08-19T06:16:02;18.30;99.90
24207;DHT22;12351;52.284;9.160;2022-08-19T06:18:34;18.30;99.90
24207;DHT22;12351;52.284;9.160;2022-08-19T06:21:09;18.30;99.90
24207;DHT22;12351;52.284;9.160;2022-08-19T06:23:43;18.30;99.90
24207;DHT22;12351;52.284;9.160;2022-08-19T06:26:18;18.30;99.90
24207;DHT22;12351;52.284;9.160;2022-08-19T06:28:48;18.30;99.90
24207;DHT22;12351;52.284;9.160;2022-08-19T06:31:24;18.40;99.90
24207;DHT22;12351;52.284;9.160;2022-08-19T06:34:00;18.20;99.90
24207;DHT22;12351;52.284;9.160;2022-08-19T06:36:34;18.20;99.90
24207;DHT22;12351;52.284;9.160;2022-08-19T06:39:06;18.40;99.90
24207;DHT22;12351;52.284;9.160;2022-08-19T06:41:42;18.50;99.90
24207;DHT22;12351;52.284;9.160;2022-08-19T06:44:17;18.40;99.90
24207;DHT22;12351;52.284;9.160;2022-08-19T06:46:50;18.40;99.90
24207;DHT22;12351;52.284;9.160;2022-08-19T06:49:26;18.40;99.90
24207;DHT22;12351;52.284;9.160;2022-08-19T06:51:58;18.60;99.90
24207;DHT22;12351;52.284;9.160;2022-08-19T06:54:31;18.50;99.90
24207;DHT22;12351;52.284;9.160;2022-08-19T06:57:08;18.60;99.90
24207;DHT22;12351;52.284;9.160;2022-08-19T06:59:42;18.60;99.90
24207;DHT22;12351;52.284;9.160;2022-08-19T07:02:16;18.70;99.90
24207;DHT22;12351;52.284;9.160;2022-08-19T07:04:50;18.80;99.90
24207;DHT22;12351;52.284;9.160;2022-08-19T07:07:26;19.20;99.90
24207;DHT22;12351;52.284;9.160;2022-08-19T07:09:59;19.50;99.90
24207;DHT22;12351;52.284;9.160;2022-08-19T07:12:34;19.50;99.90
24207;DHT22;12351;52.284;9.160;2022-08-19T07:15:08;19.70;99.90
24207;DHT22;12351;52.284;9.160;2022-08-19T07:17:41;19.90;99.90
24207;DHT22;12351;52.284;9.160;2022-08-19T07:20:14;20.20;99.90
24207;DHT22;12351;52.284;9.160;2022-08-19T07:22:50;20.00;99.90
24207;DHT22;12351;52.284;9.160;2022-08-19T07:25:20;20.00;99.90
24207;DHT22;12351;52.284;9.160;2022-08-19T07:27:53;20.10;99.90
24207;DHT22;12351;52.284;9.160;2022-08-19T07:30:27;19.80;99.90
24207;DHT22;12351;52.284;9.160;2022-08-19T07:33:03;19.80;99.90
24207;DHT22;12351;52.284;9.160;2022-08-19T07:35:37;20.00;99.90
24207;DHT22;12351;52.284;9.160;2022-08-19T07:38:12;20.30;99.90
24207;DHT22;12351;52.284;9.160;2022-08-19T07:40:46;20.40;99.90
24207;DHT22;12351;52.284;9.160;2022-08-19T07:43:21;20.70;99.90
24207;DHT22;12351;52.284;9.160;2022-08-19T07:45:56;20.70;99.90
24207;DHT22;12351;52.284;9.160;2022-08-19T07:48:29;20.70;99.90
24207;DHT22;12351;52.284;9.160;2022-08-19T07:51:06;20.60;99.90
24207;DHT22;12351;52.284;9.160;2022-08-19T07:53:38;20.70;99.90
24207;DHT22;12351;52.284;9.160;2022-08-19T07:56:13;20.90;99.90
24207;DHT22;12351;52.284;9.160;2022-08-19T07:58:48;21.10;99.90
24207;DHT22;12351;52.284;9.160;2022-08-19T08:01:23;20.80;99.90
24207;DHT22;12351;52.284;9.160;2022-08-19T08:03:58;21.00;99.90
24207;DHT22;12351;52.284;9.160;2022-08-19T08:06:31;21.10;99.90
24207;DHT22;12351;52.284;9.160;2022-08-19T08:09:06;21.30;99.90
24207;DHT22;12351;52.284;9.160;2022-08-19T08:11:38;21.30;99.90
24207;DHT22;12351;52.284;9.160;2022-08-19T08:14:13;21.30;99.90
24207;DHT22;12351;52.284;9.160;2022-08-19T08:16:46;21.40;99.90
24207;DHT22;12351;52.284;9.160;2022-08-19T08:19:23;21.40;99.90
24207;DHT22;12351;52.284;9.160;2022-08-19T08:21:58;21.20;99.90
24207;DHT22;12351;52.284;9.160;2022-08-19T08:24:32;21.00;99.90
24207;DHT22;12351;52.284;9.160;2022-08-19T08:27:06;21.20;99.90
24207;DHT22;12351;52.284;9.160;2022-08-19T08:29:37;21.30;99.90
24207;DHT22;12351;52.284;9.160;2022-08-19T08:32:10;21.00;99.90
24207;DHT22;12351;52.284;9.160;2022-08-19T08:34:47;21.40;99.90
24207;DHT22;12351;52.284;9.160;2022-08-19T08:37:20;21.80;99.90
24207;DHT22;12351;52.284;9.160;2022-08-19T08:39:50;21.70;99.90
24207;DHT22;12351;52.284;9.160;2022-08-19T08:47:35;21.50;99.90
24207;DHT22;12351;52.284;9.160;2022-08-19T08:50:13;21.60;99.90
24207;DHT22;12351;52.284;9.160;2022-08-19T08:52:47;21.40;99.90
24207;DHT22;12351;52.284;9.160;2022-08-19T08:55:25;21.50;99.90
24207;DHT22;12351;52.284;9.160;2022-08-19T09:00:38;21.50;99.90
24207;DHT22;12351;52.284;9.160;2022-08-19T09:03:13;21.80;99.90
24207;DHT22;12351;52.284;9.160;2022-08-19T09:05:48;21.90;99.90
24207;DHT22;12351;52.284;9.160;2022-08-19T09:10:51;21.60;99.90
24207;DHT22;12351;52.284;9.160;2022-08-19T09:15:58;22.30;99.90
24207;DHT22;12351;52.284;9.160;2022-08-19T09:21:04;22.30;99.90
24207;DHT22;12351;52.284;9.160;2022-08-19T09:23:38;22.30;99.90
24207;DHT22;12351;52.284;9.160;2022-08-19T09:26:10;22.10;99.90
24207;DHT22;12351;52.284;9.160;2022-08-19T09:28:47;22.60;99.90
24207;DHT22;12351;52.284;9.160;2022-08-19T09:31:21;22.70;99.90
24207;DHT22;12351;52.284;9.160;2022-08-19T09:33:57;22.60;99.90
24207;DHT22;12351;52.284;9.160;2022-08-19T09:36:31;22.70;99.90
24207;DHT22;12351;52.284;9.160;2022-08-19T09:39:00;22.80;99.90
24207;DHT22;12351;52.284;9.160;2022-08-19T09:41:31;23.10;99.90
24207;DHT22;12351;52.284;9.160;2022-08-19T09:44:02;23.30;99.90
24207;DHT22;12351;52.284;9.160;2022-08-19T09:46:35;23.10;99.90
24207;DHT22;12351;52.284;9.160;2022-08-19T09:49:08;23.00;99.90
24207;DHT22;12351;52.284;9.160;2022-08-19T09:51:41;23.30;99.90
24207;DHT22;12351;52.284;9.160;2022-08-19T09:54:18;23.60;99.90
24207;DHT22;12351;52.284;9.160;2022-08-19T09:56:52;23.30;99.90
24207;DHT22;12351;52.284;9.160;2022-08-19T09:59:28;23.60;99.90
24207;DHT22;12351;52.284;9.160;2022-08-19T10:02:08;23.70;99.90
24207;DHT22;12351;52.284;9.160;2022-08-19T10:04:41;23.40;99.90
24207;DHT22;12351;52.284;9.160;2022-08-19T10:07:16;22.80;99.90
24207;DHT22;12351;52.284;9.160;2022-08-19T10:09:50;23.20;99.90
24207;DHT22;12351;52.284;9.160;2022-08-19T10:12:25;23.40;99.90
24207;DHT22;12351;52.284;9.160;2022-08-19T10:14:56;23.70;99.90
24207;DHT22;12351;52.284;9.160;2022-08-19T10:17:32;23.80;99.90
24207;DHT22;12351;52.284;9.160;2022-08-19T10:20:03;23.90;99.90
24207;DHT22;12351;52.284;9.160;2022-08-19T10:22:37;23.80;99.90
24207;DHT22;12351;52.284;9.160;2022-08-19T10:25:12;24.10;99.90
24207;DHT22;12351;52.284;9.160;2022-08-19T10:27:41;24.00;99.90
24207;DHT22;12351;52.284;9.160;2022-08-19T10:30:16;24.10;99.90
24207;DHT22;12351;52.284;9.160;2022-08-19T10:32:51;24.10;99.90
24207;DHT22;12351;52.284;9.160;2022-08-19T10:35:24;24.00;99.90
24207;DHT22;12351;52.284;9.160;2022-08-19T10:37:58;23.90;99.90
24207;DHT22;12351;52.284;9.160;2022-08-19T10:40:33;23.90;99.90
24207;DHT22;12351;52.284;9.160;2022-08-19T10:43:06;24.30;99.90
24207;DHT22;12351;52.284;9.160;2022-08-19T10:45:39;24.50;99.90
24207;DHT22;12351;52.284;9.160;2022-08-19T10:48:13;24.40;99.90
24207;DHT22;12351;52.284;9.160;2022-08-19T10:50:48;24.60;99.90
24207;DHT22;12351;52.284;9.160;2022-08-19T10:53:22;24.70;99.90
24207;DHT22;12351;52.284;9.160;2022-08-19T10:55:57;24.70;99.90
24207;DHT22;12351;52.284;9.160;2022-08-19T10:58:29;25.10;99.90
24207;DHT22;12351;52.284;9.160;2022-08-19T11:01:03;24.50;99.90
24207;DHT22;12351;52.284;9.160;2022-08-19T11:03:36;24.80;99.90
24207;DHT22;12351;52.284;9.160;2022-08-19T11:06:09;25.00;99.90
24207;DHT22;12351;52.284;9.160;2022-08-19T11:08:43;25.20;99.90
24207;DHT22;12351;52.284;9.160;2022-08-19T11:11:17;25.40;99.90
24207;DHT22;12351;52.284;9.160;2022-08-19T11:13:52;25.50;99.90
24207;DHT22;12351;52.284;9.160;2022-08-19T11:16:29;25.50;99.90
24207;DHT22;12351;52.284;9.160;2022-08-19T11:19:03;25.70;99.90
24207;DHT22;12351;52.284;9.160;2022-08-19T11:21:40;25.50;99.90
24207;DHT22;12351;52.284;9.160;2022-08-19T11:24:16;25.50;99.90
24207;DHT22;12351;52.284;9.160;2022-08-19T11:26:49;25.60;99.90
24207;DHT22;12351;52.284;9.160;2022-08-19T11:29:25;25.90;99.90
24207;DHT22;12351;52.284;9.160;2022-08-19T11:32:02;25.80;99.90
24207;DHT22;12351;52.284;9.160;2022-08-19T11:34:35;26.00;99.90
24207;DHT22;12351;52.284;9.160;2022-08-19T11:37:09;26.00;99.90
24207;DHT22;12351;52.284;9.160;2022-08-19T11:39:43;26.20;99.90
24207;DHT22;12351;52.284;9.160;2022-08-19T11:42:17;26.40;99.90
24207;DHT22;12351;52.284;9.160;2022-08-19T11:44:52;26.60;99.90
24207;DHT22;12351;52.284;9.160;2022-08-19T11:47:25;26.40;99.90
24207;DHT22;12351;52.284;9.160;2022-08-19T11:49:58;26.30;99.90
24207;DHT22;12351;52.284;9.160;2022-08-19T11:52:30;26.50;99.90
24207;DHT22;12351;52.284;9.160;2022-08-19T11:55:04;26.80;99.90
24207;DHT22;12351;52.284;9.160;2022-08-19T11:57:39;26.90;99.90
24207;DHT22;12351;52.284;9.160;2022-08-19T12:00:14;27.20;99.90
24207;DHT22;12351;52.284;9.160;2022-08-19T12:02:47;26.70;99.90
24207;DHT22;12351;52.284;9.160;2022-08-19T12:05:23;26.90;99.90
24207;DHT22;12351;52.284;9.160;2022-08-19T12:07:57;26.40;99.90
24207;DHT22;12351;52.284;9.160;2022-08-19T12:10:29;26.80;99.90
24207;DHT22;12351;52.284;9.160;2022-08-19T12:12:58;26.20;99.90
24207;DHT22;12351;52.284;9.160;2022-08-19T12:18:07;26.80;99.90
24207;DHT22;12351;52.284;9.160;2022-08-19T12:20:42;26.90;99.90
24207;DHT22;12351;52.284;9.160;2022-08-19T12:23:16;27.20;99.90
24207;DHT22;12351;52.284;9.160;2022-08-19T12:25:49;27.70;99.90
24207;DHT22;12351;52.284;9.160;2022-08-19T12:28:26;27.30;98.90
24207;DHT22;12351;52.284;9.160;2022-08-19T12:31:00;27.10;99.90
24207;DHT22;12351;52.284;9.160;2022-08-19T12:33:34;27.30;99.90
24207;DHT22;12351;52.284;9.160;2022-08-19T12:36:09;27.40;99.90
24207;DHT22;12351;52.284;9.160;2022-08-19T12:38:41;27.80;99.90
24207;DHT22;12351;52.284;9.160;2022-08-19T12:41:15;27.70;99.90
24207;DHT22;12351;52.284;9.160;2022-08-19T12:43:46;28.00;99.90
24207;DHT22;12351;52.284;9.160;2022-08-19T12:46:20;27.60;99.90
24207;DHT22;12351;52.284;9.160;2022-08-19T12:48:51;27.90;99.90
24207;DHT22;12351;52.284;9.160;2022-08-19T12:51:24;28.10;99.90
24207;DHT22;12351;52.284;9.160;2022-08-19T12:53:58;28.00;97.70
24207;DHT22;12351;52.284;9.160;2022-08-19T12:56:32;28.10;97.90
24207;DHT22;12351;52.284;9.160;2022-08-19T12:59:08;26.90;96.00
24207;DHT22;12351;52.284;9.160;2022-08-19T13:01:43;27.10;99.90
24207;DHT22;12351;52.284;9.160;2022-08-19T13:04:18;27.90;99.90
24207;DHT22;12351;52.284;9.160;2022-08-19T13:06:50;27.80;95.90
24207;DHT22;12351;52.284;9.160;2022-08-19T13:09:23;27.90;97.30
24207;DHT22;12351;52.284;9.160;2022-08-19T13:11:57;28.40;96.40
24207;DHT22;12351;52.284;9.160;2022-08-19T13:14:29;28.60;94.10
24207;DHT22;12351;52.284;9.160;2022-08-19T13:17:03;28.80;94.20
24207;DHT22;12351;52.284;9.160;2022-08-19T13:19:35;28.90;92.80
24207;DHT22;12351;52.284;9.160;2022-08-19T13:22:05;29.10;92.20
24207;DHT22;12351;52.284;9.160;2022-08-19T13:24:37;28.10;91.60
24207;DHT22;12351;52.284;9.160;2022-08-19T13:27:10;27.70;94.20
24207;DHT22;12351;52.284;9.160;2022-08-19T13:29:46;27.80;93.50
24207;DHT22;12351;52.284;9.160;2022-08-19T13:32:16;27.20;94.20
24207;DHT22;12351;52.284;9.160;2022-08-19T13:34:48;28.10;95.40
24207;DHT22;12351;52.284;9.160;2022-08-19T13:37:22;28.20;94.40
24207;DHT22;12351;52.284;9.160;2022-08-19T13:39:55;28.70;94.20
24207;DHT22;12351;52.284;9.160;2022-08-19T13:42:26;28.30;92.00
24207;DHT22;12351;52.284;9.160;2022-08-19T13:45:02;28.70;92.50
24207;DHT22;12351;52.284;9.160;2022-08-19T13:47:37;28.90;91.90
24207;DHT22;12351;52.284;9.160;2022-08-19T13:50:13;28.40;89.60
24207;DHT22;12351;52.284;9.160;2022-08-19T13:52:47;28.10;87.20
24207;DHT22;12351;52.284;9.160;2022-08-19T13:55:15;28.20;89.90
24207;DHT22;12351;52.284;9.160;2022-08-19T13:57:50;27.80;88.50
24207;DHT22;12351;52.284;9.160;2022-08-19T14:00:26;28.30;90.80
24207;DHT22;12351;52.284;9.160;2022-08-19T14:02:58;28.60;88.70
24207;DHT22;12351;52.284;9.160;2022-08-19T14:05:33;28.10;90.40
24207;DHT22;12351;52.284;9.160;2022-08-19T14:08:08;28.10;90.90
24207;DHT22;12351;52.284;9.160;2022-08-19T14:10:40;27.70;92.90
24207;DHT22;12351;52.284;9.160;2022-08-19T14:13:15;28.20;94.20
24207;DHT22;12351;52.284;9.160;2022-08-19T14:15:47;28.50;92.10
24207;DHT22;12351;52.284;9.160;2022-08-19T14:18:22;28.60;91.70
24207;DHT22;12351;52.284;9.160;2022-08-19T14:20:51;28.50;90.30
24207;DHT22;12351;52.284;9.160;2022-08-19T14:23:27;28.30;92.10
24207;DHT22;12351;52.284;9.160;2022-08-19T14:26:03;28.20;91.30
24207;DHT22;12351;52.284;9.160;2022-08-19T14:28:37;27.60;92.10
24207;DHT22;12351;52.284;9.160;2022-08-19T14:31:14;27.70;92.70
24207;DHT22;12351;52.284;9.160;2022-08-19T14:33:47;28.10;92.70
24207;DHT22;12351;52.284;9.160;2022-08-19T14:36:22;28.20;95.10
24207;DHT22;12351;52.284;9.160;2022-08-19T14:38:58;28.70;93.20
24207;DHT22;12351;52.284;9.160;2022-08-19T14:41:32;28.30;92.70
24207;DHT22;12351;52.284;9.160;2022-08-19T14:44:07;28.10;92.60
24207;DHT22;12351;52.284;9.160;2022-08-19T14:46:41;27.80;93.60
24207;DHT22;12351;52.284;9.160;2022-08-19T14:49:19;28.00;93.90
24207;DHT22;12351;52.284;9.160;2022-08-19T14:51:52;27.90;91.80
24207;DHT22;12351;52.284;9.160;2022-08-19T14:54:25;28.20;93.20
24207;DHT22;12351;52.284;9.160;2022-08-19T14:57:01;28.10;91.80
24207;DHT22;12351;52.284;9.160;2022-08-19T14:59:34;27.70;92.20
24207;DHT22;12351;52.284;9.160;2022-08-19T15:02:08;27.70;91.50
24207;DHT22;12351;52.284;9.160;2022-08-19T15:04:41;28.10;91.90
24207;DHT22;12351;52.284;9.160;2022-08-19T15:07:15;28.60;92.00
24207;DHT22;12351;52.284;9.160;2022-08-19T15:09:51;28.90;91.70
24207;DHT22;12351;52.284;9.160;2022-08-19T15:12:27;28.80;89.40
24207;DHT22;12351;52.284;9.160;2022-08-19T15:14:59;28.80;90.30
24207;DHT22;12351;52.284;9.160;2022-08-19T15:17:33;27.70;89.00
24207;DHT22;12351;52.284;9.160;2022-08-19T15:20:06;27.50;91.30
24207;DHT22;12351;52.284;9.160;2022-08-19T15:22:40;28.20;90.10
24207;DHT22;12351;52.284;9.160;2022-08-19T15:25:16;28.20;90.30
24207;DHT22;12351;52.284;9.160;2022-08-19T15:27:51;28.50;87.70
24207;DHT22;12351;52.284;9.160;2022-08-19T15:30:26;27.90;87.70
24207;DHT22;12351;52.284;9.160;2022-08-19T15:32:59;27.90;89.50
24207;DHT22;12351;52.284;9.160;2022-08-19T15:35:32;28.30;89.10
24207;DHT22;12351;52.284;9.160;2022-08-19T15:38:03;27.90;88.50
24207;DHT22;12351;52.284;9.160;2022-08-19T15:40:36;28.60;89.10
24207;DHT22;12351;52.284;9.160;2022-08-19T15:43:11;29.00;84.70
24207;DHT22;12351;52.284;9.160;2022-08-19T15:45:46;29.10;81.70
24207;DHT22;12351;52.284;9.160;2022-08-19T15:48:19;29.10;82.80
24207;DHT22;12351;52.284;9.160;2022-08-19T15:50:54;29.10;83.60
24207;DHT22;12351;52.284;9.160;2022-08-19T15:53:29;29.40;82.60
24207;DHT22;12351;52.284;9.160;2022-08-19T15:56:03;29.10;79.70
24207;DHT22;12351;52.284;9.160;2022-08-19T15:58:37;28.50;80.80
24207;DHT22;12351;52.284;9.160;2022-08-19T16:01:11;28.40;78.80
24207;DHT22;12351;52.284;9.160;2022-08-19T16:03:46;28.30;79.10
24207;DHT22;12351;52.284;9.160;2022-08-19T16:06:18;28.80;81.80
24207;DHT22;12351;52.284;9.160;2022-08-19T16:08:54;28.90;84.20
24207;DHT22;12351;52.284;9.160;2022-08-19T16:11:32;29.40;82.80
24207;DHT22;12351;52.284;9.160;2022-08-19T16:14:06;29.40;80.70
24207;DHT22;12351;52.284;9.160;2022-08-19T16:16:38;29.30;78.70
24207;DHT22;12351;52.284;9.160;2022-08-19T16:19:09;28.80;78.70
24207;DHT22;12351;52.284;9.160;2022-08-19T16:21:43;28.50;80.20
24207;DHT22;12351;52.284;9.160;2022-08-19T16:24:19;28.80;79.80
24207;DHT22;12351;52.284;9.160;2022-08-19T16:26:53;29.10;77.40
24207;DHT22;12351;52.284;9.160;2022-08-19T16:29:27;28.80;78.80
24207;DHT22;12351;52.284;9.160;2022-08-19T16:32:03;28.90;81.10